sensor_id;sensor_type;location;lat;lon;timestamp;pressure;altitude;pressure_sealevel;temperature;humidity
68712;BME280;55690;51.566;19.198;2023-02-18T00:01:49;100914.75;;;12.17;71.09
68712;BME280;55690;51.566;19.198;2023-02-18T00:05:55;100942.95;;;12.05;71.19
68712;BME280;55690;51.566;19.198;2023-02-18T00:10:02;100950.02;;;11.84;72.83
68712;BME280;55690;51.566;19.198;2023-02-18T00:14:12;100944.00;;;11.91;72.14
68712;BME280;55690;51.566;19.198;2023-02-18T00:18:14;100960.15;;;11.82;72.22
68712;BME280;55690;51.566;19.198;2023-02-18T00:22:20;100969.84;;;11.73;70.68
68712;BME280;55690;51.566;19.198;2023-02-18T00:26:26;100973.00;;;11.80;68.70
68712;BME280;55690;51.566;19.198;2023-02-18T00:47:21;101023.82;;;7.55;78.93
68712;BME280;55690;51.566;19.198;2023-02-18T00:51:26;101037.56;;;8.44;75.65
68712;BME280;55690;51.566;19.198;2023-02-18T00:55:27;101049.06;;;8.47;75.29
68712;BME280;55690;51.566;19.198;2023-02-18T00:59:29;101045.91;;;8.69;74.59
68712;BME280;55690;51.566;19.198;2023-02-18T01:03:30;101040.50;;;8.69;73.54
68712;BME280;55690;51.566;19.198;2023-02-18T01:07:31;101064.91;;;9.12;73.93
68712;BME280;55690;51.566;19.198;2023-02-18T01:11:33;101055.23;;;8.93;73.86
68712;BME280;55690;51.566;19.198;2023-02-18T01:15:35;101063.45;;;8.92;74.17
68712;BME280;55690;51.566;19.198;2023-02-18T01:19:36;101059.66;;;8.66;74.48
68712;BME280;55690;51.566;19.198;2023-02-18T01:23:39;101075.69;;;8.55;75.46
68712;BME280;55690;51.566;19.198;2023-02-18T01:27:41;101066.27;;;8.30;75.49
68712;BME280;55690;51.566;19.198;2023-02-18T01:31:42;101068.82;;;8.33;75.38
68712;BME280;55690;51.566;19.198;2023-02-18T01:35:43;101061.36;;;8.53;75.37
68712;BME280;55690;51.566;19.198;2023-02-18T01:39:45;101056.37;;;8.75;75.01
68712;BME280;55690;51.566;19.198;2023-02-18T01:43:46;101058.43;;;8.42;74.72
68712;BME280;55690;51.566;19.198;2023-02-18T01:47:48;101070.63;;;8.49;74.94
68712;BME280;55690;51.566;19.198;2023-02-18T01:51:57;101087.38;;;8.55;74.88
68712;BME280;55690;51.566;19.198;2023-02-18T01:56:02;101087.38;;;8.55;73.89
68712;BME280;55690;51.566;19.198;2023-02-18T02:00:09;101076.73;;;8.52;73.94
68712;BME280;55690;51.566;19.198;2023-02-18T02:04:12;101087.93;;;8.46;73.66
68712;BME280;55690;51.566;19.198;2023-02-18T02:08:13;101084.20;;;8.33;74.17
68712;BME280;55690;51.566;19.198;2023-02-18T02:16:41;101104.58;;;8.54;75.75
68712;BME280;55690;51.566;19.198;2023-02-18T08:24:42;101315.59;;;6.69;86.52
68712;BME280;55690;51.566;19.198;2023-02-18T08:28:46;101310.20;;;7.74;82.28
68712;BME280;55690;51.566;19.198;2023-02-18T08:32:51;101305.70;;;9.62;76.42
68712;BME280;55690;51.566;19.198;2023-02-18T08:36:58;101303.45;;;9.54;76.63
68712;BME280;55690;51.566;19.198;2023-02-18T08:41:06;101298.53;;;9.61;75.55
68712;BME280;55690;51.566;19.198;2023-02-18T08:45:10;101288.66;;;9.60;75.28
68712;BME280;55690;51.566;19.198;2023-02-18T08:49:19;101313.31;;;9.41;76.23
68712;BME280;55690;51.566;19.198;2023-02-18T08:53:24;101314.83;;;9.31;76.51
68712;BME280;55690;51.566;19.198;2023-02-18T08:57:28;101296.11;;;8.96;75.74
68712;BME280;55690;51.566;19.198;2023-02-18T09:01:35;101308.16;;;9.37;75.66
68712;BME280;55690;51.566;19.198;2023-02-18T09:05:41;101311.06;;;8.72;75.70
68712;BME280;55690;51.566;19.198;2023-02-18T09:09:47;101311.15;;;8.86;76.26
68712;BME280;55690;51.566;19.198;2023-02-18T09:13:53;101300.05;;;8.75;75.47
68712;BME280;55690;51.566;19.198;2023-02-18T09:17:59;101309.32;;;8.71;76.20
68712;BME280;55690;51.566;19.198;2023-02-18T09:22:06;101316.04;;;8.80;76.87
68712;BME280;55690;51.566;19.198;2023-02-18T09:26:13;101312.30;;;8.51;75.72
68712;BME280;55690;51.566;19.198;2023-02-18T09:30:18;101309.32;;;8.40;76.13
68712;BME280;55690;51.566;19.198;2023-02-18T09:34:24;101307.56;;;8.39;75.58
68712;BME280;55690;51.566;19.198;2023-02-18T09:39:23;101301.27;;;8.70;76.92
68712;BME280;55690;51.566;19.198;2023-02-18T09:43:35;101317.90;;;8.63;76.03
68712;BME280;55690;51.566;19.198;2023-02-18T09:47:40;101323.72;;;8.72;75.34
68712;BME280;55690;51.566;19.198;2023-02-18T09:51:43;101318.16;;;8.26;76.34
68712;BME280;55690;51.566;19.198;2023-02-18T09:55:48;101309.42;;;8.54;76.10
68712;BME280;55690;51.566;19.198;2023-02-18T09:59:59;101296.74;;;8.70;75.53
68712;BME280;55690;51.566;19.198;2023-02-18T10:04:09;101296.56;;;8.89;75.61
68712;BME280;55690;51.566;19.198;2023-02-18T10:08:20;101283.98;;;8.72;76.04
68712;BME280;55690;51.566;19.198;2023-02-18T10:12:25;101290.18;;;8.90;75.94
68712;BME280;55690;51.566;19.198;2023-02-18T10:16:27;101169.81;;;8.50;74.96
68712;BME280;55690;51.566;19.198;2023-02-18T10:20:31;101247.20;;;9.14;75.44
68712;BME280;55690;51.566;19.198;2023-02-18T10:24:37;101269.06;;;9.11;75.02
68712;BME280;55690;51.566;19.198;2023-02-18T10:28:39;101267.33;;;9.54;75.07
68712;BME280;55690;51.566;19.198;2023-02-18T10:43:55;101235.98;;;8.60;77.92
68712;BME280;55690;51.566;19.198;2023-02-18T10:48:12;101233.20;;;9.21;76.50
68712;BME280;55690;51.566;19.198;2023-02-18T10:52:17;101225.58;;;9.28;74.51
68712;BME280;55690;51.566;19.198;2023-02-18T11:00:14;101216.34;;;9.02;73.84
68712;BME280;55690;51.566;19.198;2023-02-18T11:04:15;101217.31;;;9.15;73.42
68712;BME280;55690;51.566;19.198;2023-02-18T11:08:26;101192.46;;;9.09;71.92
68712;BME280;55690;51.566;19.198;2023-02-18T11:12:33;101195.35;;;9.06;71.31
68712;BME280;55690;51.566;19.198;2023-02-18T11:16:40;101174.20;;;9.41;71.46
68712;BME280;55690;51.566;19.198;2023-02-18T11:20:54;101175.74;;;9.30;71.15
68712;BME280;55690;51.566;19.198;2023-02-18T11:25:01;101160.37;;;9.45;69.17
68712;BME280;55690;51.566;19.198;2023-02-18T11:29:08;101161.70;;;9.81;70.86
68712;BME280;55690;51.566;19.198;2023-02-18T11:37:26;101149.88;;;9.96;69.82
68712;BME280;55690;51.566;19.198;2023-02-18T11:41:33;101140.29;;;9.90;70.00
68712;BME280;55690;51.566;19.198;2023-02-18T11:45:35;101116.69;;;10.19;68.33
68712;BME280;55690;51.566;19.198;2023-02-18T11:49:38;101103.79;;;10.23;67.53
68712;BME280;55690;51.566;19.198;2023-02-18T11:57:58;101074.55;;;9.99;67.08
68712;BME280;55690;51.566;19.198;2023-02-18T12:06:22;101086.64;;;10.22;67.66
68712;BME280;55690;51.566;19.198;2023-02-18T12:14:35;101078.28;;;10.25;66.13
68712;BME280;55690;51.566;19.198;2023-02-18T12:44:12;101049.39;;;9.56;68.66
68712;BME280;55690;51.566;19.198;2023-02-18T12:56:54;101027.23;;;9.91;69.75
68712;BME280;55690;51.566;19.198;2023-02-18T13:01:09;101006.13;;;9.82;70.15
68712;BME280;55690;51.566;19.198;2023-02-18T13:09:40;100999.58;;;9.72;69.31
68712;BME280;55690;51.566;19.198;2023-02-18T13:17:59;100993.02;;;9.61;71.37
68712;BME280;55690;51.566;19.198;2023-02-18T13:22:04;101008.85;;;9.82;72.02
68712;BME280;55690;51.566;19.198;2023-02-18T13:26:10;100991.38;;;9.59;73.84
68712;BME280;55690;51.566;19.198;2023-02-18T13:34:35;100973.66;;;9.26;74.05
68712;BME280;55690;51.566;19.198;2023-02-18T13:42:53;100982.50;;;9.02;80.85
68712;BME280;55690;51.566;19.198;2023-02-18T13:46:57;100984.92;;;8.63;84.19
68712;BME280;55690;51.566;19.198;2023-02-18T13:51:03;100983.36;;;8.74;84.42
68712;BME280;55690;51.566;19.198;2023-02-18T13:55:32;100981.52;;;8.74;85.22
68712;BME280;55690;51.566;19.198;2023-02-18T14:08:05;100965.74;;;8.08;88.48
68712;BME280;55690;51.566;19.198;2023-02-18T14:16:14;100950.40;;;7.79;90.58
68712;BME280;55690;51.566;19.198;2023-02-18T14:29:11;100918.62;;;8.12;91.08
68712;BME280;55690;51.566;19.198;2023-02-18T14:33:03;100909.26;;;8.32;90.81
68712;BME280;55690;51.566;19.198;2023-02-18T14:49:56;100893.54;;;8.39;91.15
68712;BME280;55690;51.566;19.198;2023-02-18T14:54:06;100899.48;;;8.15;92.46
68712;BME280;55690;51.566;19.198;2023-02-18T15:02:26;100884.81;;;8.19;93.16
68712;BME280;55690;51.566;19.198;2023-02-18T15:06:33;100881.99;;;8.07;93.43
68712;BME280;55690;51.566;19.198;2023-02-18T15:10:44;100869.92;;;8.26;92.39
68712;BME280;55690;51.566;19.198;2023-02-18T15:14:50;100881.16;;;7.76;93.91
68712;BME280;55690;51.566;19.198;2023-02-18T15:18:56;100864.32;;;8.29;92.77
68712;BME280;55690;51.566;19.198;2023-02-18T15:22:59;100853.59;;;7.99;93.74
68712;BME280;55690;51.566;19.198;2023-02-18T15:31:13;100857.94;;;8.30;92.62
68712;BME280;55690;51.566;19.198;2023-02-18T15:35:17;100861.61;;;8.29;93.57
68712;BME280;55690;51.566;19.198;2023-02-18T15:39:19;100859.44;;;8.36;93.01
68712;BME280;55690;51.566;19.198;2023-02-18T15:43:23;100860.70;;;8.45;92.97
68712;BME280;55690;51.566;19.198;2023-02-18T15:47:27;100850.35;;;8.51;92.59
68712;BME280;55690;51.566;19.198;2023-02-18T15:51:30;100852.48;;;8.46;93.09
68712;BME280;55690;51.566;19.198;2023-02-18T15:55:35;100831.31;;;8.39;93.09
68712;BME280;55690;51.566;19.198;2023-02-18T16:00:03;100831.40;;;8.23;94.00
68712;BME280;55690;51.566;19.198;2023-02-18T16:03:55;100830.34;;;8.40;93.88
68712;BME280;55690;51.566;19.198;2023-02-18T16:08:00;100819.41;;;8.13;94.87
68712;BME280;55690;51.566;19.198;2023-02-18T16:12:04;100821.22;;;8.26;93.86
68712;BME280;55690;51.566;19.198;2023-02-18T16:16:19;100814.65;;;8.30;93.65
68712;BME280;55690;51.566;19.198;2023-02-18T16:24:39;100798.65;;;8.42;93.05
68712;BME280;55690;51.566;19.198;2023-02-18T16:28:41;100797.29;;;8.34;92.12
68712;BME280;55690;51.566;19.198;2023-02-18T16:32:44;100787.45;;;8.19;94.39
68712;BME280;55690;51.566;19.198;2023-02-18T16:36:46;100777.74;;;8.29;93.50
68712;BME280;55690;51.566;19.198;2023-02-18T16:40:59;100772.75;;;8.38;94.03
68712;BME280;55690;51.566;19.198;2023-02-18T16:45:00;100766.55;;;8.50;93.37
68712;BME280;55690;51.566;19.198;2023-02-18T16:49:02;100764.44;;;8.41;93.68
68712;BME280;55690;51.566;19.198;2023-02-18T16:53:03;100760.27;;;8.49;93.53
68712;BME280;55690;51.566;19.198;2023-02-18T16:57:05;100764.36;;;8.69;92.90
68712;BME280;55690;51.566;19.198;2023-02-18T17:05:25;100757.74;;;8.60;93.36
68712;BME280;55690;51.566;19.198;2023-02-18T17:09:27;100755.33;;;8.56;93.10
68712;BME280;55690;51.566;19.198;2023-02-18T17:13:30;100739.02;;;8.70;92.63
68712;BME280;55690;51.566;19.198;2023-02-18T17:17:32;100751.89;;;8.66;93.21
68712;BME280;55690;51.566;19.198;2023-02-18T17:21:33;100762.78;;;8.52;93.32
68712;BME280;55690;51.566;19.198;2023-02-18T17:25:39;100746.46;;;8.40;93.56
68712;BME280;55690;51.566;19.198;2023-02-18T17:29:40;100745.18;;;8.31;94.56
68712;BME280;55690;51.566;19.198;2023-02-18T17:33:43;100760.84;;;8.26;94.83
68712;BME280;55690;51.566;19.198;2023-02-18T17:37:45;100766.66;;;8.06;95.23
68712;BME280;55690;51.566;19.198;2023-02-18T17:41:46;100779.70;;;7.99;95.80
68712;BME280;55690;51.566;19.198;2023-02-18T17:51:21;100792.77;;;7.18;99.06
68712;BME280;55690;51.566;19.198;2023-02-18T17:55:27;100797.36;;;7.32;99.13
68712;BME280;55690;51.566;19.198;2023-02-18T17:59:29;100801.14;;;8.02;96.10
68712;BME280;55690;51.566;19.198;2023-02-18T18:03:30;100805.60;;;8.17;94.62
68712;BME280;55690;51.566;19.198;2023-02-18T18:07:32;100804.14;;;8.12;94.71
68712;BME280;55690;51.566;19.198;2023-02-18T18:11:34;100801.84;;;8.20;94.76
68712;BME280;55690;51.566;19.198;2023-02-18T18:15:38;100804.02;;;7.85;96.04
68712;BME280;55690;51.566;19.198;2023-02-18T18:19:40;100803.38;;;8.10;94.11
68712;BME280;55690;51.566;19.198;2023-02-18T18:23:41;100784.52;;;7.94;94.42
68712;BME280;55690;51.566;19.198;2023-02-18T18:27:43;100812.13;;;7.85;95.53
68712;BME280;55690;51.566;19.198;2023-02-18T18:31:45;100814.00;;;8.13;94.20
68712;BME280;55690;51.566;19.198;2023-02-18T18:35:48;100815.14;;;7.94;95.13
68712;BME280;55690;51.566;19.198;2023-02-18T18:39:51;100813.08;;;7.70;95.83
68712;BME280;55690;51.566;19.198;2023-02-18T18:43:54;100818.35;;;7.57;96.72
68712;BME280;55690;51.566;19.198;2023-02-18T18:47:55;100836.30;;;7.58;96.63
68712;BME280;55690;51.566;19.198;2023-02-18T18:51:57;100856.18;;;7.27;97.88
68712;BME280;55690;51.566;19.198;2023-02-18T18:56:01;100858.55;;;7.47;97.28
68712;BME280;55690;51.566;19.198;2023-02-18T19:00:03;100865.16;;;7.27;98.31
68712;BME280;55690;51.566;19.198;2023-02-18T19:04:05;100879.95;;;7.36;98.17
68712;BME280;55690;51.566;19.198;2023-02-18T19:08:08;100882.95;;;7.61;96.58
68712;BME280;55690;51.566;19.198;2023-02-18T19:12:10;100888.32;;;7.91;95.24
68712;BME280;55690;51.566;19.198;2023-02-18T19:16:19;100904.46;;;7.93;95.01
68712;BME280;55690;51.566;19.198;2023-02-18T19:20:27;100892.38;;;7.39;95.72
68712;BME280;55690;51.566;19.198;2023-02-18T19:24:30;100898.11;;;7.64;95.62
68712;BME280;55690;51.566;19.198;2023-02-18T19:28:31;100907.87;;;7.66;95.43
68712;BME280;55690;51.566;19.198;2023-02-18T19:32:33;100915.16;;;7.34;96.46
68712;BME280;55690;51.566;19.198;2023-02-18T19:36:34;100946.34;;;7.09;97.64
68712;BME280;55690;51.566;19.198;2023-02-18T19:40:37;100970.98;;;7.03;97.91
68712;BME280;55690;51.566;19.198;2023-02-18T19:44:39;100977.02;;;7.08;97.49
68712;BME280;55690;51.566;19.198;2023-02-18T19:48:41;101005.30;;;7.00;96.98
68712;BME280;55690;51.566;19.198;2023-02-18T19:52:42;100974.98;;;6.95;95.96
68712;BME280;55690;51.566;19.198;2023-02-18T19:56:44;100998.93;;;6.86;96.68
68712;BME280;55690;51.566;19.198;2023-02-18T20:00:45;101012.90;;;7.10;96.90
68712;BME280;55690;51.566;19.198;2023-02-18T20:04:48;101012.30;;;7.20;95.94
68712;BME280;55690;51.566;19.198;2023-02-18T20:08:49;101008.30;;;7.43;95.23
68712;BME280;55690;51.566;19.198;2023-02-18T20:12:52;101011.65;;;6.99;96.67
68712;BME280;55690;51.566;19.198;2023-02-18T20:16:55;101025.37;;;7.12;96.56
68712;BME280;55690;51.566;19.198;2023-02-18T20:20:58;101025.37;;;7.12;96.29
68712;BME280;55690;51.566;19.198;2023-02-18T20:24:59;101039.59;;;6.83;96.12
68712;BME280;55690;51.566;19.198;2023-02-18T20:29:01;101049.58;;;7.14;94.69
68712;BME280;55690;51.566;19.198;2023-02-18T20:33:03;101068.27;;;7.01;95.20
68712;BME280;55690;51.566;19.198;2023-02-18T20:37:05;101065.95;;;6.78;96.58
68712;BME280;55690;51.566;19.198;2023-02-18T20:41:09;101080.11;;;6.98;96.47
68712;BME280;55690;51.566;19.198;2023-02-18T20:45:11;101087.63;;;6.76;97.56
68712;BME280;55690;51.566;19.198;2023-02-18T20:49:16;101090.64;;;6.70;97.96
68712;BME280;55690;51.566;19.198;2023-02-18T20:53:17;101085.95;;;6.56;98.72
68712;BME280;55690;51.566;19.198;2023-02-18T20:57:19;101084.13;;;6.74;97.31
68712;BME280;55690;51.566;19.198;2023-02-18T21:01:21;101090.70;;;6.51;97.50
68712;BME280;55690;51.566;19.198;2023-02-18T21:05:22;101105.65;;;6.41;98.00
68712;BME280;55690;51.566;19.198;2023-02-18T21:09:24;101118.11;;;6.44;98.38
68712;BME280;55690;51.566;19.198;2023-02-18T21:13:26;101112.71;;;6.44;98.25
68712;BME280;55690;51.566;19.198;2023-02-18T21:17:27;101108.27;;;6.77;96.22
68712;BME280;55690;51.566;19.198;2023-02-18T21:21:29;101121.05;;;6.74;96.37
68712;BME280;55690;51.566;19.198;2023-02-18T21:25:31;101121.36;;;6.85;96.02
68712;BME280;55690;51.566;19.198;2023-02-18T21:29:33;101143.44;;;6.93;96.10
68712;BME280;55690;51.566;19.198;2023-02-18T21:33:34;101160.73;;;6.72;96.98
68712;BME280;55690;51.566;19.198;2023-02-18T21:37:36;101163.99;;;6.78;96.77
68712;BME280;55690;51.566;19.198;2023-02-18T21:41:38;101159.12;;;7.02;95.71
68712;BME280;55690;51.566;19.198;2023-02-18T21:45:39;101157.09;;;6.90;95.62
68712;BME280;55690;51.566;19.198;2023-02-18T21:49:41;101159.36;;;6.97;95.56
68712;BME280;55690;51.566;19.198;2023-02-18T21:53:42;101169.55;;;6.92;95.42
68712;BME280;55690;51.566;19.198;2023-02-18T21:57:44;101178.11;;;6.66;96.21
68712;BME280;55690;51.566;19.198;2023-02-18T22:01:46;101178.36;;;6.25;97.57
68712;BME280;55690;51.566;19.198;2023-02-18T22:05:51;101171.42;;;6.56;96.15
68712;BME280;55690;51.566;19.198;2023-02-18T22:09:57;101177.70;;;6.56;96.06
68712;BME280;55690;51.566;19.198;2023-02-18T22:14:04;101176.81;;;6.56;95.72
68712;BME280;55690;51.566;19.198;2023-02-18T22:18:10;101199.04;;;6.61;95.21
68712;BME280;55690;51.566;19.198;2023-02-18T22:22:16;101199.13;;;6.59;95.15
68712;BME280;55690;51.566;19.198;2023-02-18T22:26:23;101208.89;;;6.62;95.51
68712;BME280;55690;51.566;19.198;2023-02-18T22:30:29;101225.58;;;6.70;95.53
68712;BME280;55690;51.566;19.198;2023-02-18T22:34:35;101236.80;;;6.44;97.36
68712;BME280;55690;51.566;19.198;2023-02-18T22:38:41;101246.50;;;6.48;97.72
68712;BME280;55690;51.566;19.198;2023-02-18T22:42:47;101255.84;;;6.41;98.28
68712;BME280;55690;51.566;19.198;2023-02-18T22:46:54;101248.94;;;6.52;98.20
68712;BME280;55690;51.566;19.198;2023-02-18T22:51:11;101254.81;;;6.79;96.79
68712;BME280;55690;51.566;19.198;2023-02-18T22:55:13;101264.51;;;6.47;98.18
68712;BME280;55690;51.566;19.198;2023-02-18T22:59:16;101262.03;;;6.24;99.33
68712;BME280;55690;51.566;19.198;2023-02-18T23:03:18;101262.98;;;6.23;99.20
68712;BME280;55690;51.566;19.198;2023-02-18T23:07:24;101271.28;;;6.18;100.00
68712;BME280;55690;51.566;19.198;2023-02-18T23:11:30;101274.87;;;6.38;99.58
68712;BME280;55690;51.566;19.198;2023-02-18T23:15:36;101281.94;;;6.03;100.00
68712;BME280;55690;51.566;19.198;2023-02-18T23:19:48;101275.00;;;6.16;99.77
68712;BME280;55690;51.566;19.198;2023-02-18T23:23:54;101276.30;;;6.07;100.00
68712;BME280;55690;51.566;19.198;2023-02-18T23:27:56;101272.01;;;6.22;99.61
68712;BME280;55690;51.566;19.198;2023-02-18T23:32:02;101278.13;;;6.25;99.80
68712;BME280;55690;51.566;19.198;2023-02-18T23:36:13;101274.20;;;5.75;100.00
68712;BME280;55690;51.566;19.198;2023-02-18T23:40:15;101268.45;;;6.21;99.71
68712;BME280;55690;51.566;19.198;2023-02-18T23:44:22;101264.74;;;6.05;99.84
68712;BME280;55690;51.566;19.198;2023-02-18T23:48:26;101264.80;;;6.22;99.56
68712;BME280;55690;51.566;19.198;2023-02-18T23:52:32;101264.02;;;6.02;100.00
68712;BME280;55690;51.566;19.198;2023-02-18T23:56:39;101264.21;;;6.16;99.27
